map of KPRG home
KPRG - Airport
Location
City:  Paris, Illinois, United States
Name:Edgar County Airport
ICAO:KPRG
FAA LID:PRG

Details
Type:Airport (Airfield)
Use:Public/Civil
Latitude:3941'59"N (39.699667)
Longitude:8740'15"W (-87.670777)
Datum:WGS 1984
Elevation:654 ft (199 m)
Variation:3.64W (WMM2015 magnetic declination)
-0.07 annual change
Runways:2
Longest:4501 × 75 ft (1372 × 23 m), paved

Time
Time Zone:UTC-6 (DST-5)
Local Time:

Weather
METAR:KPRG 190515Z AUTO 02003KT 5SM BR OVC007 02/01 A3016 RMK AO2 T00170007

Related Locations
Nearby:
Farthest:YAUG: 11131 mi / 17913 km
Augusta [Augusta Airport], WA, AU

Find:

   beyond  
but within

Other Information
Maps:
NOTAMs:
Links:
Sources:

  
  • flag of United States
  • flag of Illinois
  

Sectional Chart

Flight Planning
at skyvector.com

Satellite Image

Google Maps Satellite view

 

Copyright © 2004-2018 Karl L. Swartz. All rights reserved.
The Great Circle Mapper name and logo are trademarks of the Great Circle Mapper.
All other trademarks mentioned herein belong to their respective owners.
Please see credits for attibutions and further copyright information.

  Follow gcmap on Facebook Follow gcmap on Twitter Follow gcmap on Google+ GCmap on LinkedIn

hCard Microformat

Geo Microformat